createdAt,value
2018-07-02T00:00:38.873Z,1007.51
2018-07-02T00:01:38.875Z,1007.53
2018-07-02T00:02:38.878Z,1007.54
2018-07-02T00:03:38.879Z,1007.53
2018-07-02T00:04:38.883Z,1007.51
2018-07-02T00:05:38.884Z,1007.50
2018-07-02T00:06:38.889Z,1007.50
2018-07-02T00:07:38.890Z,1007.55
2018-07-02T00:08:38.893Z,1007.49
2018-07-02T00:09:38.895Z,1007.48
2018-07-02T00:10:38.899Z,1007.49
2018-07-02T00:11:38.898Z,1007.49
2018-07-02T00:12:38.902Z,1007.47
2018-07-02T00:13:38.906Z,1007.43
2018-07-02T00:14:38.908Z,1007.46
2018-07-02T00:15:38.910Z,1007.47
2018-07-02T00:16:38.912Z,1007.47
2018-07-02T00:17:38.915Z,1007.41
2018-07-02T00:18:38.916Z,1007.38
2018-07-02T00:19:38.921Z,1007.38
2018-07-02T00:20:38.924Z,1007.38
2018-07-02T00:21:38.925Z,1007.34
2018-07-02T00:22:38.926Z,1007.37
2018-07-02T00:23:38.929Z,1007.29
2018-07-02T00:24:38.933Z,1007.33
2018-07-02T00:25:38.934Z,1007.30
2018-07-02T00:26:38.937Z,1007.28
2018-07-02T00:27:38.938Z,1007.27
2018-07-02T00:28:38.942Z,1007.29
2018-07-02T00:29:38.943Z,1007.31
2018-07-02T00:30:38.946Z,1007.27
2018-07-02T00:31:38.948Z,1007.28
2018-07-02T00:32:38.953Z,1007.32
2018-07-02T00:33:38.951Z,1007.31
2018-07-02T00:34:38.956Z,1007.31
2018-07-02T00:35:38.957Z,1007.29
2018-07-02T00:36:38.960Z,1007.31
2018-07-02T00:37:38.961Z,1007.29
2018-07-02T00:38:38.965Z,1007.32
2018-07-02T00:39:38.966Z,1007.30
2018-07-02T00:40:38.972Z,1007.24
2018-07-02T00:41:38.970Z,1007.28
2018-07-02T00:42:39.018Z,1007.20
2018-07-02T00:43:38.975Z,1007.21
2018-07-02T00:44:38.977Z,1007.18
2018-07-02T00:45:38.980Z,1007.20
2018-07-02T00:46:38.983Z,1007.18
2018-07-02T00:47:38.984Z,1007.18
2018-07-02T00:48:38.986Z,1007.20
2018-07-02T00:49:38.989Z,1007.18
2018-07-02T00:50:38.989Z,1007.12
2018-07-02T00:51:38.991Z,1007.13
2018-07-02T00:52:38.995Z,1007.12
2018-07-02T00:53:38.997Z,1007.10
2018-07-02T00:54:38.999Z,1007.09
2018-07-02T00:55:39.004Z,1007.07
2018-07-02T00:56:39.003Z,1007.10
2018-07-02T00:57:39.005Z,1007.09
2018-07-02T00:58:39.006Z,1007.08
2018-07-02T00:59:39.011Z,1007.08
2018-07-02T01:00:39.010Z,1007.12
2018-07-02T01:01:39.013Z,1007.07
2018-07-02T01:02:39.015Z,1007.09
2018-07-02T01:03:39.017Z,1007.06
2018-07-02T01:04:39.018Z,1007.08
2018-07-02T01:05:39.021Z,1007.07
2018-07-02T01:06:39.023Z,1007.09
2018-07-02T01:07:39.025Z,1007.09
2018-07-02T01:08:39.027Z,1007.08
2018-07-02T01:09:39.029Z,1007.07
2018-07-02T01:10:39.031Z,1007.09
2018-07-02T01:11:39.033Z,1007.08
2018-07-02T01:12:39.035Z,1007.10
2018-07-02T01:13:39.037Z,1007.05
2018-07-02T01:14:39.039Z,1007.05
2018-07-02T01:15:39.040Z,1007.02
2018-07-02T01:16:39.041Z,1007.03
2018-07-02T01:17:39.044Z,1006.98
2018-07-02T01:18:39.045Z,1007.03
2018-07-02T01:19:39.048Z,1007.02
2018-07-02T01:20:39.050Z,1006.98
2018-07-02T01:21:39.052Z,1007.00
2018-07-02T01:22:39.055Z,1007.06
2018-07-02T01:23:39.056Z,1007.00
2018-07-02T01:24:39.058Z,1007.03
2018-07-02T01:25:39.058Z,1007.00
2018-07-02T01:26:39.061Z,1007.02
2018-07-02T01:27:39.063Z,1006.99
2018-07-02T01:28:39.066Z,1006.98
2018-07-02T01:29:39.069Z,1007.00
2018-07-02T01:30:39.068Z,1006.93
2018-07-02T01:31:39.069Z,1006.92
2018-07-02T01:32:39.071Z,1006.95
2018-07-02T01:33:39.073Z,1006.94
2018-07-02T01:34:39.075Z,1006.93
2018-07-02T01:35:39.079Z,1006.98
2018-07-02T01:36:39.078Z,1006.96
2018-07-02T01:37:39.079Z,1007.00
2018-07-02T01:38:39.083Z,1007.02
2018-07-02T01:39:39.083Z,1007.05
2018-07-02T01:40:39.085Z,1007.00
2018-07-02T01:41:39.086Z,1007.00
2018-07-02T01:42:39.089Z,1007.04
2018-07-02T01:43:39.089Z,1007.06
2018-07-02T01:44:39.091Z,1007.07
2018-07-02T01:45:39.094Z,1007.08
2018-07-02T01:46:39.096Z,1007.10
2018-07-02T01:47:39.098Z,1007.11
2018-07-02T01:48:39.098Z,1007.09
2018-07-02T01:49:39.100Z,1007.19
2018-07-02T01:50:39.103Z,1007.11
2018-07-02T01:51:39.102Z,1007.12
2018-07-02T01:52:39.206Z,1007.16
2018-07-02T01:53:39.109Z,1007.16
2018-07-02T01:54:39.108Z,1007.16
2018-07-02T01:55:39.110Z,1007.15
2018-07-02T01:56:39.111Z,1007.12
2018-07-02T01:57:39.113Z,1007.16
2018-07-02T01:58:39.115Z,1007.13
2018-07-02T01:59:39.115Z,1007.13
2018-07-02T02:00:39.117Z,1007.11
2018-07-02T02:01:39.118Z,1007.09
2018-07-02T02:02:39.119Z,1007.12
2018-07-02T02:03:39.120Z,1007.05
2018-07-02T02:04:39.122Z,1007.12
2018-07-02T02:05:39.124Z,1007.09
2018-07-02T02:06:39.125Z,1007.08
2018-07-02T02:07:39.126Z,1007.11
2018-07-02T02:08:39.129Z,1007.07
2018-07-02T02:09:39.131Z,1007.06
2018-07-02T02:10:39.132Z,1007.11
2018-07-02T02:11:39.133Z,1007.09
2018-07-02T02:12:39.134Z,1007.08
2018-07-02T02:13:39.136Z,1007.04
2018-07-02T02:14:39.143Z,1007.08
2018-07-02T02:15:39.139Z,1007.08
2018-07-02T02:16:39.140Z,1007.06
2018-07-02T02:17:39.141Z,1007.10
2018-07-02T02:18:39.144Z,1007.08
2018-07-02T02:19:39.144Z,1007.08
2018-07-02T02:20:39.145Z,1007.12
2018-07-02T02:21:39.148Z,1007.09
2018-07-02T02:22:39.149Z,1007.11
2018-07-02T02:23:39.150Z,1007.12
2018-07-02T02:24:39.152Z,1007.11
2018-07-02T02:25:39.153Z,1007.10
2018-07-02T02:26:39.155Z,1007.13
2018-07-02T02:27:39.155Z,1007.16
2018-07-02T02:28:39.157Z,1007.20
2018-07-02T02:29:39.158Z,1007.19
2018-07-02T02:30:39.160Z,1007.21
2018-07-02T02:31:39.161Z,1007.16
2018-07-02T02:32:39.163Z,1007.21
2018-07-02T02:33:39.163Z,1007.23
2018-07-02T02:34:39.165Z,1007.21
2018-07-02T02:35:39.165Z,1007.23
2018-07-02T02:36:39.167Z,1007.27
2018-07-02T02:37:39.168Z,1007.21
2018-07-02T02:38:39.169Z,1007.21
2018-07-02T02:39:39.171Z,1007.26
2018-07-02T02:40:39.172Z,1007.23
2018-07-02T02:41:39.174Z,1007.25
2018-07-02T02:42:39.175Z,1007.28
2018-07-02T02:43:39.179Z,1007.20
2018-07-02T02:44:39.178Z,1007.25
2018-07-02T02:45:39.178Z,1007.25
2018-07-02T02:46:39.179Z,1007.23
2018-07-02T02:47:39.179Z,1007.23
2018-07-02T02:48:39.183Z,1007.27
2018-07-02T02:49:39.189Z,1007.22
2018-07-02T02:50:39.185Z,1007.19
2018-07-02T02:51:39.185Z,1007.19
2018-07-02T02:52:39.188Z,1007.19
2018-07-02T02:53:39.187Z,1007.19
2018-07-02T02:54:39.190Z,1007.18
2018-07-02T02:55:39.189Z,1007.19
2018-07-02T02:56:39.191Z,1007.22
2018-07-02T02:57:39.192Z,1007.23
2018-07-02T02:58:39.195Z,1007.23
2018-07-02T02:59:39.193Z,1007.30
2018-07-02T03:00:39.195Z,1007.31
2018-07-02T03:01:39.196Z,1007.30
2018-07-02T03:02:39.198Z,1007.31
2018-07-02T03:03:39.200Z,1007.31
2018-07-02T03:04:39.200Z,1007.33
2018-07-02T03:05:39.201Z,1007.35
2018-07-02T03:06:39.201Z,1007.34
2018-07-02T03:07:39.202Z,1007.28
2018-07-02T03:08:39.203Z,1007.30
2018-07-02T03:09:39.268Z,1007.30
2018-07-02T03:10:39.206Z,1007.33
2018-07-02T03:11:39.207Z,1007.23
2018-07-02T03:12:39.209Z,1007.30
2018-07-02T03:13:39.208Z,1007.25
2018-07-02T03:14:39.209Z,1007.22
2018-07-02T03:15:39.211Z,1007.21
2018-07-02T03:16:39.212Z,1007.26
2018-07-02T03:17:39.213Z,1007.26
2018-07-02T03:18:39.226Z,1007.25
2018-07-02T03:19:39.214Z,1007.27
2018-07-02T03:20:39.216Z,1007.29
2018-07-02T03:21:39.216Z,1007.30
2018-07-02T03:22:39.217Z,1007.26
2018-07-02T03:23:39.219Z,1007.27
2018-07-02T03:24:39.220Z,1007.30
2018-07-02T03:25:39.221Z,1007.29
2018-07-02T03:26:39.222Z,1007.30
2018-07-02T03:27:39.222Z,1007.27
2018-07-02T03:28:39.223Z,1007.26
2018-07-02T03:29:39.224Z,1007.26
2018-07-02T03:30:39.233Z,1007.24
2018-07-02T03:31:39.226Z,1007.25
2018-07-02T03:32:39.227Z,1007.27
2018-07-02T03:33:39.228Z,1007.23
2018-07-02T03:34:39.228Z,1007.27
2018-07-02T03:35:39.228Z,1007.29
2018-07-02T03:36:39.231Z,1007.22
2018-07-02T03:37:39.231Z,1007.25
2018-07-02T03:38:39.232Z,1007.24
2018-07-02T03:39:39.231Z,1007.24
2018-07-02T03:40:39.232Z,1007.26
2018-07-02T03:41:39.234Z,1007.24
2018-07-02T03:42:39.237Z,1007.28
2018-07-02T03:43:39.235Z,1007.29
2018-07-02T03:44:39.235Z,1007.27
2018-07-02T03:45:39.237Z,1007.27
2018-07-02T03:46:39.236Z,1007.27
2018-07-02T03:47:39.237Z,1007.27
2018-07-02T03:48:39.237Z,1007.30
2018-07-02T03:49:39.240Z,1007.30
2018-07-02T03:50:39.240Z,1007.30
2018-07-02T03:51:39.239Z,1007.30
2018-07-02T03:52:39.241Z,1007.28
2018-07-02T03:53:39.242Z,1007.36
2018-07-02T03:54:39.246Z,1007.33
2018-07-02T03:55:39.244Z,1007.39
2018-07-02T03:56:39.244Z,1007.34
2018-07-02T03:57:39.246Z,1007.37
2018-07-02T03:58:39.245Z,1007.39
2018-07-02T03:59:39.246Z,1007.37
2018-07-02T04:00:39.247Z,1007.35
2018-07-02T04:01:39.248Z,1007.31
2018-07-02T04:02:39.248Z,1007.31
2018-07-02T04:03:39.249Z,1007.32
2018-07-02T04:04:39.249Z,1007.30
2018-07-02T04:05:39.250Z,1007.24
2018-07-02T04:06:39.253Z,1007.36
2018-07-02T04:07:39.258Z,1007.28
2018-07-02T04:08:39.253Z,1007.34
2018-07-02T04:09:39.253Z,1007.33
2018-07-02T04:10:39.254Z,1007.29
2018-07-02T04:11:39.254Z,1007.29
2018-07-02T04:12:39.260Z,1007.38
2018-07-02T04:13:39.257Z,1007.35
2018-07-02T04:14:39.256Z,1007.38
2018-07-02T04:15:39.259Z,1007.42
2018-07-02T04:16:39.258Z,1007.43
2018-07-02T04:17:39.260Z,1007.43
2018-07-02T04:18:39.259Z,1007.49
2018-07-02T04:19:39.260Z,1007.47
2018-07-02T04:20:39.261Z,1007.44
2018-07-02T04:21:39.263Z,1007.48
2018-07-02T04:22:39.264Z,1007.48
2018-07-02T04:23:39.261Z,1007.49
2018-07-02T04:24:39.264Z,1007.49
2018-07-02T04:25:39.265Z,1007.55
2018-07-02T04:26:39.266Z,1007.53
2018-07-02T04:27:39.267Z,1007.50
2018-07-02T04:28:39.269Z,1007.53
2018-07-02T04:29:39.270Z,1007.54
2018-07-02T04:30:39.270Z,1007.52
2018-07-02T04:31:39.273Z,1007.56
2018-07-02T04:32:39.312Z,1007.57
2018-07-02T04:33:39.272Z,1007.50
2018-07-02T04:34:39.272Z,1007.53
2018-07-02T04:35:39.272Z,1007.52
2018-07-02T04:36:39.275Z,1007.52
2018-07-02T04:37:39.275Z,1007.45
2018-07-02T04:38:39.277Z,1007.50
2018-07-02T04:39:39.276Z,1007.47
2018-07-02T04:40:39.277Z,1007.44
2018-07-02T04:41:39.279Z,1007.48
2018-07-02T04:42:39.281Z,1007.50
2018-07-02T04:43:39.279Z,1007.57
2018-07-02T04:44:39.279Z,1007.55
2018-07-02T04:45:39.284Z,1007.59
2018-07-02T04:46:39.285Z,1007.61
2018-07-02T04:47:39.283Z,1007.61
2018-07-02T04:48:39.284Z,1007.58
2018-07-02T04:49:39.285Z,1007.63
2018-07-02T04:50:39.285Z,1007.63
2018-07-02T04:51:39.286Z,1007.64
2018-07-02T04:52:39.287Z,1007.63
2018-07-02T04:53:39.289Z,1007.65
2018-07-02T04:54:39.290Z,1007.60
2018-07-02T04:55:39.290Z,1007.63
2018-07-02T04:56:39.293Z,1007.66
2018-07-02T04:57:39.292Z,1007.67
2018-07-02T04:58:39.293Z,1007.62
2018-07-02T04:59:39.346Z,1007.65
2018-07-02T05:00:39.296Z,1007.64
2018-07-02T05:01:39.297Z,1007.65
2018-07-02T05:02:39.297Z,1007.68
2018-07-02T05:03:39.299Z,1007.63
2018-07-02T05:04:39.298Z,1007.67
2018-07-02T05:05:39.301Z,1007.68
2018-07-02T05:06:39.301Z,1007.67
2018-07-02T05:07:39.342Z,1007.67
2018-07-02T05:08:39.303Z,1007.70
2018-07-02T05:09:39.306Z,1007.69
2018-07-02T05:10:39.306Z,1007.73
2018-07-02T05:11:39.307Z,1007.68
2018-07-02T05:12:39.308Z,1007.71
2018-07-02T05:13:39.312Z,1007.72
2018-07-02T05:14:39.311Z,1007.72
2018-07-02T05:15:39.312Z,1007.70
2018-07-02T05:16:39.311Z,1007.70
2018-07-02T05:17:39.313Z,1007.72
2018-07-02T05:18:39.314Z,1007.74
2018-07-02T05:19:39.316Z,1007.75
2018-07-02T05:20:39.317Z,1007.78
2018-07-02T05:21:39.317Z,1008.02
2018-07-02T05:22:39.319Z,1008.40
2018-07-02T05:23:39.320Z,1008.59
2018-07-02T05:24:39.330Z,1008.65
2018-07-02T05:25:39.323Z,1008.67
2018-07-02T05:26:39.327Z,1008.71
2018-07-02T05:27:39.329Z,1008.70
2018-07-02T05:28:39.332Z,1008.68
2018-07-02T05:29:39.337Z,1008.72
2018-07-02T05:30:39.342Z,1008.73
2018-07-02T05:31:39.347Z,1008.79
2018-07-02T05:32:39.353Z,1008.79
2018-07-02T05:33:39.359Z,1008.80
2018-07-02T05:34:39.366Z,1008.80
2018-07-02T05:35:39.374Z,1008.81
2018-07-02T05:36:39.381Z,1008.73
2018-07-02T05:37:39.391Z,1008.65
2018-07-02T05:38:39.399Z,1008.54
2018-07-02T05:39:39.407Z,1008.37
2018-07-02T05:40:39.418Z,1008.25
2018-07-02T05:41:39.427Z,1008.13
2018-07-02T05:42:39.439Z,1008.04
2018-07-02T05:43:39.447Z,1007.99
2018-07-02T05:44:39.458Z,1007.96
2018-07-02T05:45:39.468Z,1007.98
2018-07-02T05:46:39.480Z,1007.92
2018-07-02T05:47:39.491Z,1007.90
2018-07-02T05:48:39.559Z,1007.83
2018-07-02T05:49:39.514Z,1007.85
2018-07-02T05:50:39.524Z,1007.79
2018-07-02T05:51:39.535Z,1007.72
2018-07-02T05:52:39.545Z,1007.76
2018-07-02T05:53:39.556Z,1007.75
2018-07-02T05:54:39.566Z,1007.72
2018-07-02T05:55:39.577Z,1007.67
2018-07-02T05:56:39.585Z,1007.70
2018-07-02T05:57:39.594Z,1007.70
2018-07-02T05:58:39.603Z,1007.67
2018-07-02T05:59:39.614Z,1007.70
2018-07-02T06:00:39.648Z,1007.66
2018-07-02T06:01:39.629Z,1007.65
2018-07-02T06:02:39.637Z,1007.64
2018-07-02T06:03:39.647Z,1007.65
2018-07-02T06:04:39.652Z,1007.63
2018-07-02T06:05:39.660Z,1007.64
2018-07-02T06:06:39.668Z,1007.60
2018-07-02T06:07:39.674Z,1007.62
2018-07-02T06:08:39.680Z,1007.58
2018-07-02T06:09:39.688Z,1007.61
2018-07-02T06:10:39.695Z,1007.60
2018-07-02T06:11:39.701Z,1007.58
2018-07-02T06:12:39.708Z,1007.59
2018-07-02T06:13:39.716Z,1007.62
2018-07-02T06:14:39.731Z,1007.54
2018-07-02T06:15:39.724Z,1007.62
2018-07-02T06:16:39.800Z,1007.63
2018-07-02T06:17:39.738Z,1007.58
2018-07-02T06:18:39.745Z,1007.63
2018-07-02T06:19:39.749Z,1007.62
2018-07-02T06:20:39.754Z,1007.60
2018-07-02T06:21:39.761Z,1007.61
2018-07-02T06:22:39.766Z,1007.66
2018-07-02T06:23:39.769Z,1007.61
2018-07-02T06:24:39.778Z,1007.61
2018-07-02T06:25:39.780Z,1007.67
2018-07-02T06:26:39.790Z,1007.69
2018-07-02T06:27:39.790Z,1007.67
2018-07-02T06:28:39.798Z,1007.69
2018-07-02T06:29:39.801Z,1007.70
2018-07-02T06:30:39.807Z,1007.67
2018-07-02T06:31:39.811Z,1007.68
2018-07-02T06:32:39.815Z,1007.64
2018-07-02T06:33:39.824Z,1007.67
2018-07-02T06:34:39.825Z,1007.63
2018-07-02T06:35:39.829Z,1007.70
2018-07-02T06:36:39.834Z,1007.62
2018-07-02T06:37:39.842Z,1007.62
2018-07-02T06:38:39.843Z,1007.62
2018-07-02T06:39:39.848Z,1007.61
2018-07-02T06:40:39.852Z,1007.63
2018-07-02T06:41:39.857Z,1007.63
2018-07-02T06:42:39.862Z,1007.62
2018-07-02T06:43:39.868Z,1007.62
2018-07-02T06:44:39.869Z,1007.63
2018-07-02T06:45:39.875Z,1007.64
2018-07-02T06:46:39.879Z,1007.65
2018-07-02T06:47:39.882Z,1007.67
2018-07-02T06:48:39.888Z,1007.65
2018-07-02T06:49:39.893Z,1007.66
2018-07-02T06:50:39.900Z,1007.63
2018-07-02T06:51:39.900Z,1007.68
2018-07-02T06:52:39.906Z,1007.66
2018-07-02T06:53:39.911Z,1007.71
2018-07-02T06:54:39.916Z,1007.71
2018-07-02T06:55:39.919Z,1007.74
2018-07-02T06:56:39.923Z,1007.68
2018-07-02T06:57:39.928Z,1007.75
2018-07-02T06:58:39.983Z,1007.76
2018-07-02T06:59:39.937Z,1007.78
2018-07-02T07:00:39.964Z,1007.81
2018-07-02T07:01:39.947Z,1007.80
2018-07-02T07:02:39.949Z,1007.80
2018-07-02T07:03:39.956Z,1007.77
2018-07-02T07:04:39.958Z,1007.77
2018-07-02T07:05:39.964Z,1007.83
2018-07-02T07:06:39.971Z,1007.81
2018-07-02T07:07:39.976Z,1007.83
2018-07-02T07:08:39.994Z,1007.78
2018-07-02T07:09:39.982Z,1007.77
2018-07-02T07:10:39.986Z,1007.81
2018-07-02T07:11:39.991Z,1007.81
2018-07-02T07:12:39.996Z,1007.81
2018-07-02T07:13:40.000Z,1007.80
2018-07-02T07:14:40.007Z,1007.82
2018-07-02T07:15:40.031Z,1007.80
2018-07-02T07:16:40.014Z,1007.82
2018-07-02T07:17:40.022Z,1007.87
2018-07-02T07:18:40.024Z,1007.90
2018-07-02T07:19:40.028Z,1007.86
2018-07-02T07:20:40.033Z,1007.84
2018-07-02T07:21:40.037Z,1007.85
2018-07-02T07:22:40.043Z,1007.85
2018-07-02T07:23:40.047Z,1007.86
2018-07-02T07:24:40.051Z,1007.81
2018-07-02T07:25:40.088Z,1007.78
2018-07-02T07:26:40.061Z,1007.79
2018-07-02T07:27:40.071Z,1007.75
2018-07-02T07:28:40.071Z,1007.80
2018-07-02T07:29:40.075Z,1007.82
2018-07-02T07:30:40.080Z,1007.86
2018-07-02T07:31:40.085Z,1008.04
2018-07-02T07:32:40.105Z,1008.35
2018-07-02T07:33:40.096Z,1008.58
2018-07-02T07:34:40.103Z,1008.64
2018-07-02T07:35:40.108Z,1008.64
2018-07-02T07:36:40.114Z,1008.58
2018-07-02T07:37:40.123Z,1008.50
2018-07-02T07:38:40.130Z,1008.61
2018-07-02T07:39:40.138Z,1008.58
2018-07-02T07:40:40.148Z,1008.57
2018-07-02T07:41:40.158Z,1008.71
2018-07-02T07:42:40.166Z,1008.77
2018-07-02T07:43:40.177Z,1008.83
2018-07-02T07:44:40.188Z,1008.94
2018-07-02T07:45:40.200Z,1009.00
2018-07-02T07:46:40.215Z,1009.09
2018-07-02T07:47:40.223Z,1009.15
2018-07-02T07:48:40.234Z,1009.20
2018-07-02T07:49:40.250Z,1009.13
2018-07-02T07:50:40.263Z,1009.19
2018-07-02T07:51:40.274Z,1009.22
2018-07-02T07:52:40.289Z,1009.21
2018-07-02T07:53:40.303Z,1009.14
2018-07-02T07:54:40.317Z,1009.23
2018-07-02T07:55:40.331Z,1009.26
2018-07-02T07:56:40.348Z,1009.27
2018-07-02T07:57:40.361Z,1009.27
2018-07-02T07:58:40.375Z,1009.27
2018-07-02T07:59:40.392Z,1009.30
2018-07-02T08:00:40.407Z,1009.27
2018-07-02T08:01:40.421Z,1009.28
2018-07-02T08:02:40.436Z,1009.30
2018-07-02T08:03:40.462Z,1009.30
2018-07-02T08:04:40.467Z,1009.36
2018-07-02T08:05:40.482Z,1009.38
2018-07-02T08:06:40.497Z,1009.38
2018-07-02T08:07:40.513Z,1009.41
2018-07-02T08:08:40.527Z,1009.43
2018-07-02T08:09:40.544Z,1009.39
2018-07-02T08:10:40.561Z,1009.46
2018-07-02T08:11:40.574Z,1009.44
2018-07-02T08:12:40.590Z,1009.39
2018-07-02T08:13:40.606Z,1009.44
2018-07-02T08:14:40.622Z,1009.46
2018-07-02T08:15:40.638Z,1009.41
2018-07-02T08:16:40.654Z,1009.29
2018-07-02T08:17:40.674Z,1009.25
2018-07-02T08:18:40.686Z,1009.24
2018-07-02T08:19:40.705Z,1009.22
2018-07-02T08:20:40.722Z,1009.23
2018-07-02T08:21:40.735Z,1009.23
2018-07-02T08:22:40.752Z,1009.22
2018-07-02T08:23:40.767Z,1009.23
2018-07-02T08:24:40.783Z,1009.24
2018-07-02T08:25:40.801Z,1009.21
2018-07-02T08:26:40.817Z,1009.20
2018-07-02T08:27:40.834Z,1009.14
2018-07-02T08:28:40.869Z,1009.05
2018-07-02T08:29:40.867Z,1009.00
2018-07-02T08:30:40.885Z,1008.95
2018-07-02T08:31:40.902Z,1008.83
2018-07-02T08:32:40.917Z,1008.80
2018-07-02T08:33:40.935Z,1008.75
2018-07-02T08:34:40.952Z,1008.71
2018-07-02T08:35:40.968Z,1008.68
2018-07-02T08:36:40.985Z,1008.71
2018-07-02T08:37:41.001Z,1008.75
2018-07-02T08:38:41.018Z,1008.73
2018-07-02T08:39:41.041Z,1008.72
2018-07-02T08:40:41.052Z,1008.76
2018-07-02T08:41:41.070Z,1008.75
2018-07-02T08:42:41.086Z,1008.76
2018-07-02T08:43:41.104Z,1008.70
2018-07-02T08:44:41.119Z,1008.67
2018-07-02T08:45:41.136Z,1008.74
2018-07-02T08:46:41.158Z,1008.63
2018-07-02T08:47:41.168Z,1008.67
2018-07-02T08:48:41.188Z,1008.72
2018-07-02T08:49:41.204Z,1008.67
2018-07-02T08:50:41.227Z,1008.70
2018-07-02T08:51:41.240Z,1008.69
2018-07-02T08:52:41.269Z,1008.79
2018-07-02T08:53:41.272Z,1008.71
2018-07-02T08:54:41.288Z,1008.73
2018-07-02T08:55:41.305Z,1008.72
2018-07-02T08:56:41.324Z,1008.71
2018-07-02T08:57:41.338Z,1008.72
2018-07-02T08:58:41.356Z,1008.71
2018-07-02T08:59:41.373Z,1008.67
2018-07-02T09:00:41.390Z,1008.69
2018-07-02T09:01:41.408Z,1008.69
2018-07-02T09:02:41.427Z,1008.65
2018-07-02T09:03:41.442Z,1008.64
2018-07-02T09:04:41.458Z,1008.65
2018-07-02T09:05:41.476Z,1008.64
2018-07-02T09:06:41.493Z,1008.62
2018-07-02T09:07:41.509Z,1008.59
2018-07-02T09:08:41.527Z,1008.62
2018-07-02T09:09:41.543Z,1008.57
2018-07-02T09:10:41.560Z,1008.62
2018-07-02T09:11:41.577Z,1008.66
2018-07-02T09:12:41.594Z,1008.59
2018-07-02T09:13:41.611Z,1008.64
2018-07-02T09:14:41.654Z,1008.67
2018-07-02T09:15:41.645Z,1008.63
2018-07-02T09:16:41.663Z,1008.60
2018-07-02T09:17:41.701Z,1008.60
2018-07-02T09:18:41.697Z,1008.59
2018-07-02T09:19:41.715Z,1008.61
2018-07-02T09:20:41.750Z,1008.57
2018-07-02T09:21:41.749Z,1008.59
2018-07-02T09:22:41.765Z,1008.63
2018-07-02T09:23:41.792Z,1008.56
2018-07-02T09:24:41.799Z,1008.51
2018-07-02T09:25:41.815Z,1008.46
2018-07-02T09:26:41.834Z,1008.53
2018-07-02T09:27:41.849Z,1008.50
2018-07-02T09:28:41.867Z,1008.50
2018-07-02T09:29:41.884Z,1008.52
2018-07-02T09:30:41.900Z,1008.52
2018-07-02T09:31:41.921Z,1008.55
2018-07-02T09:32:42.019Z,1008.63
2018-07-02T09:33:41.951Z,1008.57
2018-07-02T09:34:41.969Z,1008.60
2018-07-02T09:35:41.984Z,1008.62
2018-07-02T09:36:42.001Z,1008.64
2018-07-02T09:37:42.018Z,1008.60
2018-07-02T09:38:42.035Z,1008.59
2018-07-02T09:39:42.057Z,1008.61
2018-07-02T09:40:42.068Z,1008.62
2018-07-02T09:41:42.085Z,1008.62
2018-07-02T09:42:42.104Z,1008.64
2018-07-02T09:43:42.117Z,1008.56
2018-07-02T09:44:42.135Z,1008.58
2018-07-02T09:45:42.151Z,1008.57
2018-07-02T09:46:42.168Z,1008.64
2018-07-02T09:47:42.184Z,1008.63
2018-07-02T09:48:42.201Z,1008.65
2018-07-02T09:49:42.217Z,1008.66
2018-07-02T09:50:42.235Z,1008.71
2018-07-02T09:51:42.249Z,1008.64
2018-07-02T09:52:42.267Z,1008.60
2018-07-02T09:53:42.286Z,1008.58
2018-07-02T09:54:42.299Z,1008.59
2018-07-02T09:55:42.315Z,1008.62
2018-07-02T09:56:42.336Z,1008.64
2018-07-02T09:57:42.348Z,1008.61
2018-07-02T09:58:42.363Z,1008.65
2018-07-02T09:59:42.385Z,1008.65
2018-07-02T10:00:42.467Z,1008.61
2018-07-02T10:01:42.412Z,1008.57
2018-07-02T10:02:42.430Z,1008.57
2018-07-02T10:03:42.445Z,1008.58
2018-07-02T10:04:42.478Z,1008.57
2018-07-02T10:05:42.478Z,1008.54
2018-07-02T10:06:42.574Z,1008.51
2018-07-02T10:07:42.511Z,1008.47
2018-07-02T10:08:42.526Z,1008.54
2018-07-02T10:09:42.543Z,1008.52
2018-07-02T10:10:42.559Z,1008.60
2018-07-02T10:11:42.573Z,1008.53
2018-07-02T10:12:42.618Z,1008.55
2018-07-02T10:13:42.607Z,1008.55
2018-07-02T10:14:42.623Z,1008.55
2018-07-02T10:15:42.639Z,1008.54
2018-07-02T10:16:42.655Z,1008.57
2018-07-02T10:17:42.671Z,1008.51
2018-07-02T10:18:42.690Z,1008.54
2018-07-02T10:19:42.704Z,1008.51
2018-07-02T10:20:42.719Z,1008.44
2018-07-02T10:21:42.734Z,1008.51
2018-07-02T10:22:42.749Z,1008.51
2018-07-02T10:23:42.853Z,1008.52
2018-07-02T10:24:42.781Z,1008.51
2018-07-02T10:25:42.799Z,1008.51
2018-07-02T10:26:42.814Z,1008.53
2018-07-02T10:27:42.827Z,1008.46
2018-07-02T10:28:42.845Z,1008.53
2018-07-02T10:29:42.859Z,1008.46
2018-07-02T10:30:42.925Z,1008.50
2018-07-02T10:31:42.891Z,1008.55
2018-07-02T10:32:42.907Z,1008.47
2018-07-02T10:33:42.922Z,1008.47
2018-07-02T10:34:42.951Z,1008.53
2018-07-02T10:35:42.955Z,1008.46
2018-07-02T10:36:42.969Z,1008.44
2018-07-02T10:37:42.988Z,1008.43
2018-07-02T10:38:43.000Z,1008.42
2018-07-02T10:39:43.017Z,1008.44
2018-07-02T10:40:43.029Z,1008.37
2018-07-02T10:41:43.046Z,1008.38
2018-07-02T10:42:43.061Z,1008.43
2018-07-02T10:43:43.078Z,1008.41
2018-07-02T10:44:43.093Z,1008.43
2018-07-02T10:45:43.106Z,1008.38
2018-07-02T10:46:43.121Z,1008.33
2018-07-02T10:47:43.140Z,1008.35
2018-07-02T10:48:43.151Z,1008.30
2018-07-02T10:49:43.166Z,1008.28
2018-07-02T10:50:43.180Z,1008.33
2018-07-02T10:51:43.196Z,1008.30
2018-07-02T10:52:43.211Z,1008.27
2018-07-02T10:53:43.226Z,1008.33
2018-07-02T10:54:43.241Z,1008.23
2018-07-02T10:55:43.271Z,1008.32
2018-07-02T10:56:43.271Z,1008.28
2018-07-02T10:57:43.286Z,1008.27
2018-07-02T10:58:43.305Z,1008.27
2018-07-02T10:59:43.317Z,1008.24
2018-07-02T11:00:43.334Z,1008.23
2018-07-02T11:01:43.348Z,1008.29
2018-07-02T11:02:43.360Z,1008.23
2018-07-02T11:03:43.376Z,1008.23
2018-07-02T11:04:43.390Z,1008.25
2018-07-02T11:05:43.404Z,1008.27
2018-07-02T11:06:43.419Z,1008.28
2018-07-02T11:07:43.436Z,1008.25
2018-07-02T11:08:43.449Z,1008.31
2018-07-02T11:09:43.463Z,1008.26
2018-07-02T11:10:43.477Z,1008.25
2018-07-02T11:11:43.493Z,1008.27
2018-07-02T11:12:43.508Z,1008.26
2018-07-02T11:13:43.521Z,1008.20
2018-07-02T11:14:43.537Z,1008.19
2018-07-02T11:15:43.551Z,1008.11
2018-07-02T11:16:43.567Z,1008.09
2018-07-02T11:17:43.579Z,1008.05
2018-07-02T11:18:43.596Z,1008.09
2018-07-02T11:19:43.607Z,1008.09
2018-07-02T11:20:43.621Z,1007.83
2018-07-02T11:21:43.634Z,1007.68
2018-07-02T11:22:43.655Z,1007.70
2018-07-02T11:23:43.676Z,1007.83
2018-07-02T11:24:43.674Z,1007.79
2018-07-02T11:25:43.695Z,1007.79
2018-07-02T11:26:43.703Z,1007.75
2018-07-02T11:27:43.714Z,1007.71
2018-07-02T11:28:43.733Z,1007.65
2018-07-02T11:29:43.741Z,1007.60
2018-07-02T11:30:43.756Z,1007.64
2018-07-02T11:31:43.768Z,1007.62
2018-07-02T11:32:43.788Z,1007.61
2018-07-02T11:33:43.794Z,1007.60
2018-07-02T11:34:43.807Z,1007.60
2018-07-02T11:35:43.820Z,1007.51
2018-07-02T11:36:43.831Z,1007.56
2018-07-02T11:37:43.844Z,1007.53
2018-07-02T11:38:43.858Z,1007.51
2018-07-02T11:39:43.874Z,1007.52
2018-07-02T11:40:43.881Z,1007.49
2018-07-02T11:41:43.894Z,1007.52
2018-07-02T11:42:43.906Z,1007.46
2018-07-02T11:43:43.917Z,1007.50
2018-07-02T11:44:43.929Z,1007.53
2018-07-02T11:45:43.943Z,1007.47
2018-07-02T11:46:43.954Z,1007.46
2018-07-02T11:47:43.964Z,1007.42
2018-07-02T11:48:43.977Z,1007.39
2018-07-02T11:49:44.029Z,1007.44
2018-07-02T11:50:44.002Z,1007.43
2018-07-02T11:51:44.011Z,1007.38
2018-07-02T11:52:44.024Z,1007.44
2018-07-02T11:53:44.035Z,1007.40
2018-07-02T11:54:44.048Z,1007.42
2018-07-02T11:55:44.057Z,1007.41
2018-07-02T11:56:44.069Z,1007.39
2018-07-02T11:57:44.081Z,1007.37
2018-07-02T11:58:44.092Z,1007.38
2018-07-02T11:59:44.101Z,1007.36
2018-07-02T12:00:44.114Z,1007.39
2018-07-02T12:01:44.126Z,1007.40
2018-07-02T12:02:44.136Z,1007.43
2018-07-02T12:03:44.146Z,1007.36
2018-07-02T12:04:44.157Z,1007.46
2018-07-02T12:05:44.168Z,1007.40